Acorn, Arkansas
Current Conditions -  °F | °C
As of 8:15 AM on Thursday 18 Dec 2014 (Local Time) from KMEZ Reporting Station
Overcast Overcast  
Wind Chill: 39°   Ceiling: 300
Heat Index: 39°   Visibility: 1.2mi
Dew Point: 37°   Wind: 3mph
Humidity: 93%   Direction: 70°ENE
Pressure: 30.2"   Gusts: NA
Location:  34.592°N, 94.1901°W
Report Text: KMEZ 181415Z AUTO 07003KT 1 1/4SM OVC003 04/03 A3020 RMK AO2
Loading
Personal Weather Stations






























Interactive Weather Map New forecast layout! Learn more

10-Day Weather Forecast

Advertisements
Track Severe Weather on mobile